LFBD/BOD METAR and TAF weather

Enter ICAO airport designator
Station Type Date Time Source
LFBD METAR 2022/01/25 04:30 UTC NOAA

LFBD 250430Z AUTO 00000KT 0450 0300 R23/0450D R05/0375U R29/P2300U FZFG NSC M01/M02 Q1032 TEMPO 0300 FG VV///


Station Type Date Time Source
LFBD Decoded METAR 2022/01/25 04:30 UTC NOAA

Bordeaux / Merignac, France (LFBD) 44-50N 000-42W 61M
Jan 24, 2022 - 11:30 PM EST / 2022.01.25 0430 UTC
Wind: Calm:0
Visibility: less than 1 mile:0
Weather: freezing fog
Temperature: 30 F (-1 C)
Dew Point: 28 F (-2 C)
Relative Humidity: 92%
Pressure (altimeter): 30.47 in. Hg (1032 hPa)
ob: LFBD 250430Z AUTO 00000KT 0450 0300 R23/0450D R05/0375U R29/P2300U FZFG NSC M01/M02 Q1032 TEMPO 0300 FG VV///
cycle: 4

Station Type Date Time Source
LFBD TAF 2022/01/24 21:00 UTC NOAA

TAF
AMD LFBD 242157Z 2421/2524 09005KT CAVOK TX10/2515Z TNM01/2505Z
BECMG 2422/2424 3000 BR PROB40 2502/2512 0300 FG VV/// PROB30
TEMPO 2502/2506 FZFG
BECMG 2512/2514 8000 NSW NSC
BECMG 2518/2520 3000 BR PROB40
TEMPO 2521/2524 0500 FG VV///

Example: see airport list